Time;durP1;ratioP1;P1;durP2;ratioP2;P2;SDS_P1;SDS_P2;PMS_P1;PMS_P2;Temp;Humidity;BMP_temperature;BMP_pressure;BME280_temperature;BME280_humidity;BME280_pressure;Samples;Min_cycle;Max_cycle;Signal;HPM_P1;HPM_P2
2022/01/21 00:01:37;;;;;;;14.52;2.00;;;-1.30;99.90;;;;;;5090012;28;20020;-46
2022/01/21 00:04:04;;;;;;;10.70;3.63;;;-1.30;99.90;;;;;;5089662;28;20022;-46
2022/01/21 00:06:29;;;;;;;7.55;2.20;;;-1.30;99.90;;;;;;5089995;28;20024;-45
2022/01/21 00:08:55;;;;;;;13.82;2.58;;;-1.30;99.90;;;;;;5089202;28;20023;-45
2022/01/21 00:11:23;;;;;;;10.32;2.22;;;-1.30;99.90;;;;;;5090202;28;20379;-45
2022/01/21 00:13:49;;;;;;;5.10;2.15;;;-1.30;99.90;;;;;;5089222;28;20020;-46
2022/01/21 00:16:17;;;;;;;6.45;1.70;;;-1.30;99.90;;;;;;5089718;28;20043;-46
2022/01/21 00:18:55;;;;;;;8.50;1.90;;;-1.20;99.90;;;;;;5083417;28;20028;-45
2022/01/21 00:32:18;;;;;;;5.47;1.50;;;-1.30;99.90;;;;;;5068913;28;20397;-46
2022/01/21 00:34:44;;;;;;;7.65;2.72;;;-1.30;99.90;;;;;;5069093;28;20020;-45
2022/01/21 00:37:10;;;;;;;6.55;1.90;;;-1.30;99.90;;;;;;5068919;28;20021;-47
2022/01/21 00:39:36;;;;;;;10.10;2.15;;;-1.30;99.90;;;;;;5068299;28;20027;-47
2022/01/21 00:42:13;;;;;;;7.78;1.92;;;-1.30;99.90;;;;;;5069286;28;20540;-46
2022/01/21 00:44:39;;;;;;;5.28;1.73;;;-1.30;99.90;;;;;;5068880;28;20020;-48
2022/01/21 00:47:06;;;;;;;5.90;1.80;;;-1.30;99.90;;;;;;5080250;28;20028;-46
2022/01/21 00:49:31;;;;;;;9.65;2.00;;;-1.30;99.90;;;;;;5082750;28;20032;-46
2022/01/21 00:51:57;;;;;;;5.97;2.15;;;-1.30;99.90;;;;;;5080559;28;20038;-46
2022/01/21 00:54:23;;;;;;;13.45;2.55;;;-1.30;99.90;;;;;;5089238;28;20086;-48
2022/01/21 00:56:48;;;;;;;8.00;1.95;;;-1.40;99.90;;;;;;5089089;28;20474;-45
2022/01/21 00:59:14;;;;;;;6.15;2.08;;;-1.30;99.90;;;;;;5088693;28;20235;-45
2022/01/21 01:01:39;;;;;;;5.80;1.70;;;-1.30;99.90;;;;;;5089072;28;20394;-46
2022/01/21 01:04:05;;;;;;;7.60;2.42;;;-1.40;99.90;;;;;;5088853;28;20027;-46
2022/01/21 01:06:32;;;;;;;8.38;1.90;;;-1.40;99.90;;;;;;5089126;28;20399;-45
2022/01/21 01:08:57;;;;;;;12.43;2.38;;;-1.40;99.90;;;;;;5088349;28;20080;-45
2022/01/21 01:11:44;;;;;;;10.30;2.50;;;-1.40;99.90;;;;;;5089076;28;20028;-46
2022/01/21 01:19:57;;;;;;;14.77;2.17;;;-1.40;99.90;;;;;;5082837;28;20034;-46
2022/01/21 01:22:31;;;;;;;9.07;2.17;;;-1.40;99.90;;;;;;5072239;28;20472;-45
2022/01/21 01:27:41;;;;;;;10.20;1.73;;;-1.50;99.90;;;;;;5088281;28;20093;-46
2022/01/21 01:30:12;;;;;;;11.27;2.15;;;-1.40;99.90;;;;;;5088785;28;20016;-46
2022/01/21 01:32:39;;;;;;;9.02;2.45;;;-1.40;99.90;;;;;;5088899;28;20398;-45
2022/01/21 01:35:05;;;;;;;13.77;2.25;;;-1.40;99.90;;;;;;5088479;28;20027;-46
2022/01/21 01:50:48;;;;;;;9.63;2.17;;;-1.50;99.90;;;;;;5072740;28;20123;-47
2022/01/21 01:53:14;;;;;;;11.93;2.25;;;-1.50;99.90;;;;;;5088694;28;20093;-48
2022/01/21 01:55:40;;;;;;;9.40;2.28;;;-1.40;99.90;;;;;;5088470;28;20063;-45
2022/01/21 01:58:05;;;;;;;12.23;2.50;;;-1.40;99.90;;;;;;5087426;28;20062;-46
2022/01/21 02:00:31;;;;;;;12.40;2.50;;;-1.40;99.90;;;;;;5088324;28;20032;-46
2022/01/21 02:03:08;;;;;;;10.63;2.67;;;-1.40;99.90;;;;;;5088436;28;20028;-47
2022/01/21 02:05:34;;;;;;;13.52;2.28;;;-1.40;99.90;;;;;;5088449;28;20024;-47
2022/01/21 02:08:00;;;;;;;18.73;2.33;;;-1.40;99.90;;;;;;5087427;28;20028;-47
2022/01/21 02:10:26;;;;;;;14.32;2.40;;;-1.40;99.90;;;;;;5088253;28;20024;-47
2022/01/21 02:13:02;;;;;;;9.48;1.95;;;-1.40;99.90;;;;;;5088372;28;20480;-46
2022/01/21 02:15:28;;;;;;;16.92;3.13;;;-1.40;99.90;;;;;;5088113;28;20024;-46
2022/01/21 02:23:22;;;;;;;11.57;2.55;;;-1.50;99.90;;;;;;5048120;28;20044;-48
2022/01/21 02:25:47;;;;;;;19.13;2.28;;;-1.50;99.90;;;;;;5048039;28;20494;-48
2022/01/21 02:28:15;;;;;;;13.52;2.78;;;-1.40;99.90;;;;;;5047193;28;20436;-48
2022/01/21 02:30:53;;;;;;;17.10;3.17;;;-1.50;99.90;;;;;;5047705;28;20036;-48
2022/01/21 02:33:19;;;;;;;24.40;3.38;;;-1.50;99.90;;;;;;5048180;28;20021;-47
2022/01/21 02:35:44;;;;;;;15.18;2.35;;;-1.50;99.90;;;;;;5046660;28;20497;-45
2022/01/21 02:38:10;;;;;;;15.13;3.28;;;-1.50;99.90;;;;;;5050576;28;20302;-46
2022/01/21 02:40:35;;;;;;;15.82;3.53;;;-1.50;99.90;;;;;;5051266;28;20578;-45
2022/01/21 02:43:01;;;;;;;19.05;3.40;;;-1.50;99.90;;;;;;5051177;28;20028;-46
2022/01/21 02:45:26;;;;;;;13.70;3.28;;;-1.50;99.90;;;;;;5051262;28;20029;-46
2022/01/21 02:47:52;;;;;;;19.40;2.78;;;-1.50;99.90;;;;;;5050771;28;20024;-46
2022/01/21 02:50:17;;;;;;;13.13;3.05;;;-1.50;99.90;;;;;;5075716;28;20043;-45
2022/01/21 02:52:55;;;;;;;10.52;2.47;;;-1.50;99.90;;;;;;5086422;28;20032;-46
2022/01/21 02:55:22;;;;;;;8.57;2.63;;;-1.50;99.90;;;;;;5089786;28;20477;-46
2022/01/21 02:57:49;;;;;;;15.98;2.63;;;-1.50;99.90;;;;;;5090529;28;20024;-46
2022/01/21 03:00:15;;;;;;;12.75;3.33;;;-1.50;99.90;;;;;;5090872;28;20140;-46
2022/01/21 03:02:40;;;;;;;11.90;3.40;;;-1.50;99.90;;;;;;5090912;28;20095;-45
2022/01/21 03:05:13;;;;;;;18.98;3.25;;;-1.50;99.90;;;;;;5090963;28;20063;-46
2022/01/21 03:07:38;;;;;;;11.55;3.13;;;-1.50;99.90;;;;;;5090142;28;20020;-46
2022/01/21 03:10:04;;;;;;;20.90;2.72;;;-1.50;99.90;;;;;;5089444;28;20085;-46
2022/01/21 03:12:30;;;;;;;15.05;2.80;;;-1.40;99.90;;;;;;5090600;28;20025;-46
2022/01/21 03:14:56;;;;;;;13.55;2.78;;;-1.50;99.90;;;;;;5090589;28;20085;-46
2022/01/21 03:17:21;;;;;;;17.80;3.35;;;-1.40;99.90;;;;;;5090339;28;20031;-46
2022/01/21 03:19:47;;;;;;;25.83;3.40;;;-1.40;99.90;;;;;;5084649;28;20028;-46
2022/01/21 03:22:13;;;;;;;15.57;3.70;;;-1.40;99.90;;;;;;5081924;28;20024;-46
2022/01/21 03:24:38;;;;;;;13.18;2.67;;;-1.40;99.90;;;;;;5090450;28;20031;-46
2022/01/21 03:27:04;;;;;;;18.70;3.83;;;-1.40;99.90;;;;;;5090103;28;20375;-47
2022/01/21 03:29:30;;;;;;;21.95;3.95;;;-1.30;99.90;;;;;;5089622;28;20554;-45
2022/01/21 03:31:55;;;;;;;20.10;3.58;;;-1.30;99.90;;;;;;5090327;28;20028;-48
2022/01/21 03:34:21;;;;;;;13.60;2.88;;;-1.30;99.90;;;;;;5089905;28;20477;-48
2022/01/21 03:36:46;;;;;;;18.42;3.33;;;-1.30;99.90;;;;;;5090416;28;20031;-45
2022/01/21 03:39:12;;;;;;;14.60;3.00;;;-1.30;99.90;;;;;;5088214;28;20115;-46
2022/01/21 03:41:39;;;;;;;23.17;3.95;;;-1.30;99.90;;;;;;5090436;28;20020;-45
2022/01/21 03:44:04;;;;;;;21.60;4.95;;;-1.30;99.90;;;;;;5090110;28;20020;-50
2022/01/21 03:46:30;;;;;;;18.02;2.80;;;-1.30;99.90;;;;;;5090060;28;20161;-46
2022/01/21 03:48:56;;;;;;;25.92;3.67;;;-1.40;99.90;;;;;;5082471;28;20032;-45
2022/01/21 03:51:21;;;;;;;20.40;4.50;;;-1.30;99.90;;;;;;5081329;28;20031;-45
2022/01/21 03:53:47;;;;;;;17.58;4.53;;;-1.30;99.90;;;;;;5090123;28;20020;-48
2022/01/21 03:56:14;;;;;;;21.45;4.43;;;-1.30;99.90;;;;;;5090054;28;20025;-45
2022/01/21 03:58:40;;;;;;;20.85;3.97;;;-1.30;99.90;;;;;;5089254;28;20452;-45
2022/01/21 04:01:06;;;;;;;24.20;5.20;;;-1.30;99.90;;;;;;5089817;28;20099;-45
2022/01/21 04:03:31;;;;;;;27.08;3.70;;;-1.30;99.90;;;;;;5090143;28;20031;-45
2022/01/21 04:05:57;;;;;;;15.25;2.85;;;-1.30;99.90;;;;;;5089607;28;20477;-45
2022/01/21 04:08:23;;;;;;;19.95;3.83;;;-1.30;99.90;;;;;;5089138;28;20078;-45
2022/01/21 04:10:48;;;;;;;10.82;3.08;;;-1.30;99.90;;;;;;5090401;28;20099;-45
2022/01/21 04:13:16;;;;;;;13.93;3.42;;;-1.30;99.90;;;;;;5089619;28;20024;-45
2022/01/21 04:15:43;;;;;;;16.42;4.18;;;-1.30;99.90;;;;;;5089717;28;20024;-46
2022/01/21 04:18:10;;;;;;;22.15;3.95;;;-1.30;99.90;;;;;;5089145;28;20031;-46
2022/01/21 04:20:36;;;;;;;16.27;3.78;;;-1.30;99.90;;;;;;5076650;28;20020;-48
2022/01/21 04:23:01;;;;;;;17.30;3.75;;;-1.20;99.90;;;;;;5087705;28;20056;-47
2022/01/21 04:25:27;;;;;;;19.73;3.47;;;-1.30;99.90;;;;;;5089532;28;20099;-46
2022/01/21 04:27:52;;;;;;;10.65;2.75;;;-1.20;99.90;;;;;;5089049;28;20024;-46
2022/01/21 04:30:18;;;;;;;22.42;3.78;;;-1.20;99.90;;;;;;5089496;28;20516;-47
2022/01/21 04:32:43;;;;;;;15.90;3.58;;;-1.20;99.90;;;;;;5089485;28;20024;-46
2022/01/21 04:35:09;;;;;;;12.80;3.80;;;-1.20;99.90;;;;;;5087910;28;20028;-46
2022/01/21 04:37:38;;;;;;;17.60;3.55;;;-1.30;99.90;;;;;;5088687;28;20023;-47
2022/01/21 04:40:09;;;;;;;17.98;3.88;;;-1.30;99.90;;;;;;5089320;28;20370;-46
2022/01/21 04:48:03;;;;;;;17.38;4.18;;;-1.20;99.90;;;;;;5088815;28;20034;-45
2022/01/21 04:50:40;;;;;;;21.70;3.92;;;-1.20;99.90;;;;;;5079451;28;20111;-46
2022/01/21 04:53:06;;;;;;;17.92;2.95;;;-1.20;99.90;;;;;;5086011;28;20019;-46
2022/01/21 04:55:34;;;;;;;29.77;9.75;;;-1.20;99.90;;;;;;5088715;28;20542;-46
2022/01/21 04:57:59;;;;;;;26.77;3.95;;;-1.10;99.90;;;;;;5088101;28;20024;-47
2022/01/21 05:00:25;;;;;;;22.50;4.70;;;-1.10;99.90;;;;;;5086624;28;20558;-46
2022/01/21 05:02:51;;;;;;;21.25;4.55;;;-1.00;99.90;;;;;;5088794;28;20040;-46
2022/01/21 05:05:16;;;;;;;22.80;3.78;;;-1.00;99.90;;;;;;5088558;28;20059;-47
2022/01/21 05:07:42;;;;;;;16.08;3.40;;;-0.90;99.90;;;;;;5088042;28;20028;-46
2022/01/21 05:10:08;;;;;;;16.73;3.47;;;-0.90;99.90;;;;;;5088919;28;20020;-48
2022/01/21 05:12:34;;;;;;;22.60;2.92;;;-0.80;99.90;;;;;;5088991;28;20438;-46
2022/01/21 05:17:28;;;;;;;21.75;4.20;;;-0.70;99.90;;;;;;5082856;28;20501;-47
2022/01/21 05:19:53;;;;;;;15.05;4.18;;;-0.60;99.90;;;;;;5082839;28;20016;-48
2022/01/21 05:22:19;;;;;;;12.50;3.67;;;-0.60;99.90;;;;;;5079227;28;20095;-46
2022/01/21 05:24:44;;;;;;;20.75;4.25;;;-0.60;99.90;;;;;;5088535;28;20028;-47
2022/01/21 05:27:12;;;;;;;15.68;3.22;;;-0.50;99.90;;;;;;5087038;28;20032;-46
2022/01/21 05:29:38;;;;;;;26.80;3.58;;;-0.40;99.90;;;;;;5087925;28;20486;-46
2022/01/21 05:32:05;;;;;;;20.45;3.67;;;-0.30;99.90;;;;;;5088538;28;20050;-46
2022/01/21 05:34:31;;;;;;;14.50;3.90;;;-0.30;99.90;;;;;;5088259;28;20103;-46
2022/01/21 05:36:57;;;;;;;14.65;3.60;;;-0.20;99.90;;;;;;5088489;28;20099;-49
2022/01/21 05:39:23;;;;;;;14.70;3.55;;;-0.20;99.90;;;;;;5047385;28;20083;-46
2022/01/21 05:41:51;;;;;;;19.70;4.25;;;-0.10;99.90;;;;;;5048295;28;20083;-46
2022/01/21 05:47:07;;;;;;;16.00;3.88;;;-0.10;99.90;;;;;;5036504;28;20041;-47
2022/01/21 05:49:37;;;;;;;22.60;3.33;;;0.00;99.90;;;;;;5062041;28;20024;-47
2022/01/21 05:52:50;;;;;;;17.05;3.00;;;0.00;99.90;;;;;;5079905;28;20028;-45
2022/01/21 05:54:51;;;;;;;23.58;4.03;;;0.00;99.90;;;;;;5075255;28;20033;-48
2022/01/21 05:57:19;;;;;;;24.85;5.38;;;0.10;99.90;;;;;;5060149;28;20035;-45
2022/01/21 05:59:45;;;;;;;14.13;3.53;;;0.10;99.90;;;;;;5046990;28;20100;-47
2022/01/21 06:02:12;;;;;;;21.75;4.03;;;0.10;99.90;;;;;;5059007;28;20040;-44
2022/01/21 06:04:39;;;;;;;14.50;3.88;;;0.10;99.90;;;;;;5067992;28;20544;-47
2022/01/21 06:07:06;;;;;;;24.02;4.22;;;0.10;99.90;;;;;;5071729;28;20044;-45
2022/01/21 06:09:32;;;;;;;14.55;3.42;;;0.10;99.90;;;;;;5070673;28;20031;-46
2022/01/21 06:11:57;;;;;;;19.20;3.38;;;0.20;99.90;;;;;;5075459;28;20401;-45
2022/01/21 06:14:25;;;;;;;14.25;3.40;;;0.20;99.90;;;;;;5087407;28;20063;-45
2022/01/21 06:16:51;;;;;;;11.95;2.88;;;0.20;99.90;;;;;;5078651;28;20509;-46
2022/01/21 06:19:16;;;;;;;23.80;3.33;;;0.30;99.90;;;;;;5081342;28;20056;-45
2022/01/21 06:21:42;;;;;;;17.38;3.90;;;0.30;99.90;;;;;;5084313;28;20072;-48
2022/01/21 06:24:07;;;;;;;16.73;3.75;;;0.40;99.90;;;;;;5088014;28;20478;-45
2022/01/21 06:26:35;;;;;;;19.98;3.67;;;0.40;99.90;;;;;;5077269;28;20024;-47
2022/01/21 06:29:00;;;;;;;18.02;3.25;;;0.40;99.90;;;;;;5081021;28;20113;-45
2022/01/21 06:31:26;;;;;;;21.88;3.70;;;0.40;99.90;;;;;;5084672;28;20031;-45
2022/01/21 06:33:51;;;;;;;22.17;4.15;;;0.50;99.90;;;;;;5072876;28;20021;-45
2022/01/21 06:36:17;;;;;;;17.60;5.35;;;0.50;99.90;;;;;;5086619;28;20034;-45
2022/01/21 06:38:42;;;;;;;25.00;4.15;;;0.50;99.90;;;;;;5076212;28;20477;-45
2022/01/21 06:41:08;;;;;;;21.70;3.78;;;0.50;99.90;;;;;;5090766;28;20535;-47
2022/01/21 06:43:33;;;;;;;16.90;3.13;;;0.60;99.90;;;;;;5090876;28;20024;-45
2022/01/21 06:45:59;;;;;;;17.42;3.38;;;0.60;99.90;;;;;;5078205;28;20153;-45
2022/01/21 06:48:25;;;;;;;16.70;3.38;;;0.60;99.90;;;;;;5070483;28;20474;-45
2022/01/21 06:50:51;;;;;;;22.98;3.58;;;0.60;99.90;;;;;;5078634;28;20029;-45
2022/01/21 06:53:16;;;;;;;16.70;3.22;;;0.70;99.90;;;;;;5090838;28;20470;-46
2022/01/21 06:55:42;;;;;;;14.57;3.15;;;0.70;99.90;;;;;;5091031;28;20105;-45
2022/01/21 06:58:08;;;;;;;13.43;3.10;;;0.70;99.90;;;;;;5090602;28;20055;-45
2022/01/21 07:00:34;;;;;;;21.50;3.25;;;0.70;99.90;;;;;;5089807;28;20489;-48
2022/01/21 07:02:59;;;;;;;13.27;3.13;;;0.80;99.90;;;;;;5091429;28;20028;-45
2022/01/21 07:05:25;;;;;;;16.83;3.58;;;0.80;99.90;;;;;;5090885;28;20024;-46
2022/01/21 07:07:52;;;;;;;22.52;4.28;;;0.80;99.90;;;;;;5090102;28;20104;-47
2022/01/21 07:10:17;;;;;;;12.10;2.60;;;0.90;99.90;;;;;;5091280;28;20504;-45
2022/01/21 07:12:44;;;;;;;16.88;3.83;;;0.90;99.90;;;;;;5089583;28;20052;-45
2022/01/21 07:15:11;;;;;;;15.40;3.38;;;0.90;99.90;;;;;;5089681;28;20107;-45
2022/01/21 07:17:37;;;;;;;23.88;3.75;;;0.90;99.90;;;;;;5076426;28;20363;-45
2022/01/21 07:20:04;;;;;;;13.48;3.33;;;1.00;99.90;;;;;;5077664;28;20147;-46
2022/01/21 07:22:31;;;;;;;15.45;4.05;;;1.00;99.90;;;;;;5082770;28;20067;-44
2022/01/21 07:24:57;;;;;;;17.90;3.30;;;1.00;99.90;;;;;;5089190;28;20089;-45
2022/01/21 07:27:22;;;;;;;19.25;4.07;;;1.00;99.90;;;;;;5089967;28;20038;-45
2022/01/21 07:29:48;;;;;;;17.20;3.10;;;1.00;99.90;;;;;;5090610;28;20393;-46
2022/01/21 07:32:14;;;;;;;14.95;3.40;;;1.00;99.90;;;;;;5090831;28;20536;-45
2022/01/21 07:34:39;;;;;;;27.27;4.68;;;1.10;99.90;;;;;;5090257;28;20030;-45
2022/01/21 07:37:05;;;;;;;14.25;2.85;;;1.00;99.90;;;;;;5070619;28;20035;-45
2022/01/21 07:39:30;;;;;;;13.95;3.92;;;1.10;99.90;;;;;;5069400;28;20139;-45
2022/01/21 07:41:56;;;;;;;12.20;3.45;;;1.10;99.90;;;;;;5070263;28;20119;-46
2022/01/21 07:44:22;;;;;;;17.63;4.18;;;1.20;99.90;;;;;;5068853;28;20028;-46
2022/01/21 07:46:48;;;;;;;20.42;4.45;;;1.20;99.90;;;;;;5070191;28;20096;-45
2022/01/21 07:49:15;;;;;;;19.02;5.40;;;1.20;99.90;;;;;;5070756;28;20231;-45
2022/01/21 07:51:41;;;;;;;18.27;3.30;;;1.20;99.90;;;;;;5081417;28;20569;-47
2022/01/21 07:54:08;;;;;;;19.95;3.70;;;1.20;99.90;;;;;;5089985;28;20080;-46
2022/01/21 07:56:34;;;;;;;15.57;3.45;;;1.20;99.90;;;;;;5090331;28;20020;-46
2022/01/21 07:59:03;;;;;;;12.27;3.22;;;1.20;99.90;;;;;;5089291;28;20034;-48
2022/01/21 08:01:29;;;;;;;13.88;5.05;;;1.30;99.90;;;;;;5089932;28;20024;-46
2022/01/21 08:03:54;;;;;;;14.65;3.17;;;1.30;99.90;;;;;;5089854;28;20031;-45
2022/01/21 08:06:20;;;;;;;14.18;4.35;;;1.30;99.90;;;;;;5089706;28;20025;-48
2022/01/21 08:08:45;;;;;;;20.30;3.33;;;1.30;99.90;;;;;;5071570;28;20051;-45
2022/01/21 08:11:11;;;;;;;17.73;4.22;;;1.40;99.90;;;;;;5068348;28;20028;-49
2022/01/21 08:13:37;;;;;;;21.52;4.93;;;1.40;99.90;;;;;;5068149;28;20024;-46
2022/01/21 08:16:03;;;;;;;17.25;4.57;;;1.50;99.90;;;;;;5058849;28;20548;-46
2022/01/21 08:18:29;;;;;;;20.73;4.13;;;1.50;99.90;;;;;;5048861;28;20032;-45
2022/01/21 08:20:54;;;;;;;19.63;4.88;;;1.60;99.90;;;;;;5076413;28;20043;-48
2022/01/21 08:23:20;;;;;;;18.00;3.78;;;1.60;99.90;;;;;;5089844;28;20035;-45
2022/01/21 08:25:46;;;;;;;18.23;4.05;;;1.60;99.90;;;;;;5089602;28;20389;-47
2022/01/21 08:28:11;;;;;;;16.40;4.35;;;1.70;99.90;;;;;;5088775;28;20032;-46
2022/01/21 08:30:38;;;;;;;13.60;3.50;;;1.70;99.90;;;;;;5089432;28;20046;-48
2022/01/21 08:33:04;;;;;;;16.88;3.78;;;1.70;99.90;;;;;;5089808;28;20016;-46
2022/01/21 08:35:30;;;;;;;18.67;4.20;;;1.80;99.90;;;;;;5077618;28;20025;-45
2022/01/21 08:37:55;;;;;;;14.93;3.92;;;1.80;99.90;;;;;;5068244;28;20039;-46
2022/01/21 08:40:22;;;;;;;14.90;4.78;;;1.80;99.90;;;;;;5069074;28;20028;-48
2022/01/21 08:42:48;;;;;;;10.55;3.38;;;1.80;99.90;;;;;;5069088;28;20044;-45
2022/01/21 08:45:14;;;;;;;18.27;3.67;;;1.90;99.90;;;;;;5069008;28;20021;-45
2022/01/21 08:47:42;;;;;;;14.27;3.35;;;2.00;99.90;;;;;;5066374;28;20032;-45
2022/01/21 08:50:11;;;;;;;17.13;3.83;;;2.00;99.90;;;;;;5067740;28;20386;-46
2022/01/21 08:52:37;;;;;;;16.77;4.28;;;2.00;99.90;;;;;;5079828;28;20047;-45
2022/01/21 08:55:05;;;;;;;20.80;4.90;;;2.00;99.90;;;;;;5075013;28;20551;-45
2022/01/21 08:57:32;;;;;;;14.30;3.60;;;2.00;99.90;;;;;;5067497;28;20028;-45
2022/01/21 08:59:58;;;;;;;9.93;3.78;;;2.10;99.90;;;;;;5068601;28;20032;-48
2022/01/21 09:02:24;;;;;;;15.65;3.85;;;2.00;99.90;;;;;;5066061;28;20383;-45
2022/01/21 09:04:49;;;;;;;16.15;5.72;;;2.10;99.90;;;;;;5067464;28;20028;-45
2022/01/21 09:07:15;;;;;;;12.15;3.45;;;2.10;99.90;;;;;;5067134;28;20503;-45
2022/01/21 09:09:40;;;;;;;12.40;3.75;;;2.10;99.90;;;;;;5067553;28;20032;-47
2022/01/21 09:12:06;;;;;;;15.15;4.05;;;2.10;99.90;;;;;;5068056;28;20013;-46
2022/01/21 09:14:33;;;;;;;21.83;3.90;;;2.20;99.90;;;;;;5066329;28;20445;-45
2022/01/21 09:16:59;;;;;;;14.02;4.03;;;2.20;99.90;;;;;;5067716;28;20466;-45
2022/01/21 09:19:25;;;;;;;14.70;4.45;;;2.20;99.90;;;;;;5071951;28;20111;-46
2022/01/21 09:21:52;;;;;;;15.68;3.80;;;2.30;99.90;;;;;;5078043;28;20319;-46
2022/01/21 09:24:19;;;;;;;10.65;4.63;;;2.40;99.90;;;;;;5087993;28;20073;-45
2022/01/21 09:26:45;;;;;;;17.63;4.10;;;2.40;99.90;;;;;;5087957;28;20035;-48
2022/01/21 09:29:11;;;;;;;15.50;4.00;;;2.50;99.90;;;;;;5087643;28;20114;-46
2022/01/21 09:31:37;;;;;;;11.93;3.88;;;2.60;99.90;;;;;;5087622;28;20116;-46
2022/01/21 09:34:05;;;;;;;18.58;4.55;;;2.60;99.90;;;;;;5088093;28;20078;-46
2022/01/21 09:36:31;;;;;;;12.82;4.10;;;2.70;99.90;;;;;;5087889;28;20073;-46
2022/01/21 09:38:57;;;;;;;13.50;3.53;;;2.70;99.90;;;;;;5087235;28;20028;-47
2022/01/21 09:41:23;;;;;;;11.45;4.07;;;2.80;99.90;;;;;;5088181;28;20024;-45
2022/01/21 09:43:52;;;;;;;10.15;3.20;;;2.90;99.90;;;;;;5088286;28;20020;-46
2022/01/21 09:46:25;;;;;;;12.38;4.10;;;2.80;99.90;;;;;;5079998;28;20016;-45
2022/01/21 09:49:07;;;;;;;17.95;4.10;;;2.90;99.90;;;;;;5055846;28;20040;-45
2022/01/21 09:51:32;;;;;;;12.43;3.78;;;2.90;99.90;;;;;;5073789;28;20025;-46
2022/01/21 09:54:05;;;;;;;15.82;3.97;;;2.90;99.90;;;;;;5071580;28;20012;-45
2022/01/21 09:56:32;;;;;;;11.90;3.38;;;2.90;99.90;;;;;;5070640;28;20027;-46
2022/01/21 09:58:59;;;;;;;18.60;4.30;;;2.90;99.90;;;;;;5070969;28;20020;-45
2022/01/21 10:01:25;;;;;;;10.63;3.53;;;2.90;99.90;;;;;;5062590;28;20021;-45
2022/01/21 10:03:51;;;;;;;15.45;4.78;;;3.00;99.90;;;;;;5071416;28;20552;-47
2022/01/21 10:06:18;;;;;;;16.15;3.53;;;3.00;99.90;;;;;;5069754;28;20092;-47
2022/01/21 10:08:44;;;;;;;6.82;3.47;;;3.10;99.90;;;;;;5069303;28;20055;-45
2022/01/21 10:11:11;;;;;;;8.07;3.38;;;3.20;99.90;;;;;;5070763;28;20382;-45
2022/01/21 10:13:38;;;;;;;10.00;3.20;;;3.20;99.90;;;;;;5071057;28;20027;-46
2022/01/21 10:16:05;;;;;;;12.60;3.28;;;3.30;99.90;;;;;;5071008;28;20013;-46
2022/01/21 10:18:31;;;;;;;11.13;3.08;;;3.30;99.90;;;;;;5070634;28;20040;-46
2022/01/21 10:21:11;;;;;;;11.77;3.10;;;3.40;99.90;;;;;;5079481;28;20025;-45
2022/01/21 10:23:40;;;;;;;10.57;4.80;;;3.40;99.90;;;;;;5091090;28;20240;-46
2022/01/21 10:26:11;;;;;;;10.07;3.15;;;3.40;99.90;;;;;;5091258;28;20111;-48
2022/01/21 10:28:39;;;;;;;10.75;3.13;;;3.50;99.90;;;;;;5090606;28;20431;-46
2022/01/21 10:31:06;;;;;;;16.23;3.55;;;3.50;99.90;;;;;;5075466;28;20035;-46
2022/01/21 10:33:36;;;;;;;10.57;3.35;;;3.70;99.90;;;;;;5063489;28;20024;-46
2022/01/21 10:36:42;;;;;;;15.50;3.35;;;4.40;99.90;;;;;;5053509;28;20032;-46
2022/01/21 10:39:11;;;;;;;9.70;2.63;;;5.10;99.90;;;;;;5055524;28;20033;-46
2022/01/21 10:41:46;;;;;;;9.10;2.83;;;5.70;99.90;;;;;;5066132;28;20471;-46
2022/01/21 10:44:18;;;;;;;17.25;3.60;;;6.10;99.90;;;;;;5058983;28;20414;-48
2022/01/21 10:47:01;;;;;;;5.50;2.40;;;6.80;99.90;;;;;;5050550;28;20025;-44
2022/01/21 10:49:27;;;;;;;7.80;3.13;;;7.80;99.90;;;;;;5063527;28;20020;-47
2022/01/21 10:51:55;;;;;;;6.20;2.10;;;8.50;99.90;;;;;;5081961;28;20254;-46
2022/01/21 10:54:26;;;;;;;7.88;2.28;;;9.00;98.00;;;;;;5069933;28;20035;-46
2022/01/21 10:57:15;;;;;;;8.40;2.45;;;9.40;95.00;;;;;;5070568;28;20047;-46
2022/01/21 10:59:54;;;;;;;6.63;1.80;;;10.10;93.20;;;;;;5069894;28;20020;-49
2022/01/21 11:02:36;;;;;;;8.68;2.50;;;11.10;90.50;;;;;;5068558;28;20025;-47
2022/01/21 11:05:11;;;;;;;5.82;2.03;;;11.90;86.60;;;;;;5070519;28;20025;-48
2022/01/21 11:08:00;;;;;;;4.95;2.00;;;12.60;79.50;;;;;;5069894;28;20020;-47
2022/01/21 11:10:32;;;;;;;8.10;2.75;;;12.30;75.40;;;;;;5070467;28;20032;-50
2022/01/21 11:12:58;;;;;;;6.88;2.33;;;12.70;74.20;;;;;;5070491;28;20032;-47
2022/01/21 11:15:24;;;;;;;11.85;2.25;;;12.10;73.90;;;;;;5070216;28;20533;-47
2022/01/21 11:17:59;;;;;;;6.75;2.10;;;12.20;72.00;;;;;;5069779;28;20036;-46
2022/01/21 11:20:35;;;;;;;8.13;3.05;;;12.40;73.70;;;;;;5078235;28;20021;-47
2022/01/21 11:23:01;;;;;;;7.63;2.50;;;12.60;73.80;;;;;;5087146;28;20038;-47
2022/01/21 11:25:57;;;;;;;8.95;2.25;;;12.70;72.90;;;;;;5090258;28;20389;-47
2022/01/21 11:28:25;;;;;;;5.43;2.30;;;12.60;70.80;;;;;;5089725;28;20024;-49
2022/01/21 11:30:52;;;;;;;10.55;2.50;;;12.60;71.70;;;;;;5089536;28;20023;-48
2022/01/21 11:33:19;;;;;;;9.18;2.70;;;11.70;73.40;;;;;;5089969;28;20454;-47
2022/01/21 11:35:47;;;;;;;9.18;2.60;;;10.30;76.50;;;;;;5089655;28;20035;-47
2022/01/21 11:38:13;;;;;;;8.00;2.25;;;9.80;79.50;;;;;;5089080;28;20153;-48
2022/01/21 11:40:40;;;;;;;6.80;2.17;;;9.00;82.90;;;;;;5090200;28;20119;-47
2022/01/21 11:43:08;;;;;;;8.93;2.28;;;8.40;85.90;;;;;;5089771;28;20032;-46
2022/01/21 11:48:52;;;;;;;7.13;2.17;;;7.20;92.10;;;;;;5089489;28;20031;-48
2022/01/21 11:51:17;;;;;;;9.00;2.75;;;7.80;94.40;;;;;;5069571;28;20108;-47
2022/01/21 11:54:03;;;;;;;11.27;2.53;;;8.50;92.70;;;;;;5067507;28;20113;-47
2022/01/21 11:56:35;;;;;;;8.45;2.35;;;9.20;90.70;;;;;;5069808;28;20028;-47
2022/01/21 11:59:23;;;;;;;9.75;2.50;;;9.10;90.70;;;;;;5068567;28;20448;-46
2022/01/21 12:01:48;;;;;;;10.07;2.13;;;8.80;91.90;;;;;;5069431;28;20060;-47
2022/01/21 12:04:29;;;;;;;7.43;2.40;;;9.00;91.30;;;;;;5069190;28;20414;-47
2022/01/21 12:06:55;;;;;;;8.93;2.92;;;9.10;91.50;;;;;;5068922;28;20086;-48
2022/01/21 12:10:00;;;;;;;9.40;2.50;;;8.90;90.80;;;;;;5060753;28;20279;-47
2022/01/21 12:12:56;;;;;;;8.95;2.28;;;8.80;91.50;;;;;;5068571;28;20079;-47
2022/01/21 12:15:27;;;;;;;8.77;2.03;;;9.00;91.30;;;;;;5068477;28;20021;-47
2022/01/21 12:21:00;;;;;;;7.55;2.13;;;10.00;90.20;;;;;;5061578;28;20044;-47
2022/01/21 12:23:28;;;;;;;10.48;2.72;;;10.20;87.40;;;;;;5067302;28;20496;-48
2022/01/21 12:26:23;;;;;;;8.68;2.35;;;10.00;86.60;;;;;;5047644;28;20036;-46
2022/01/21 12:28:58;;;;;;;10.45;2.75;;;9.90;86.40;;;;;;5048506;28;20029;-46
2022/01/21 12:31:41;;;;;;;11.60;2.40;;;9.10;89.90;;;;;;5048773;28;20021;-48
2022/01/21 12:34:12;;;;;;;9.02;2.28;;;8.80;90.80;;;;;;5047769;28;20147;-48
2022/01/21 12:36:46;;;;;;;9.52;2.70;;;8.20;92.40;;;;;;5064494;28;20020;-46
2022/01/21 12:39:41;;;;;;;9.13;2.55;;;8.00;93.20;;;;;;5068507;28;20024;-47
2022/01/21 12:42:24;;;;;;;9.95;2.30;;;7.80;93.40;;;;;;5049281;28;20029;-47
2022/01/21 12:45:05;;;;;;;10.43;2.25;;;7.40;95.30;;;;;;5047792;28;20025;-48
2022/01/21 12:47:32;;;;;;;;;;;6.90;96.70;;;;;;5048971;28;20284;-46
2022/01/21 12:50:09;;;;;;;10.93;2.38;;;6.50;98.30;;;;;;5066426;28;19912;-47
2022/01/21 12:52:50;;;;;;;11.02;2.63;;;6.30;99.90;;;;;;5083443;28;20020;-47
2022/01/21 12:58:05;;;;;;;10.27;2.70;;;6.00;99.90;;;;;;5088835;28;20116;-46
2022/01/21 13:00:31;;;;;;;10.25;2.13;;;6.00;99.90;;;;;;5089153;28;20119;-47
2022/01/21 13:03:04;;;;;;;6.60;2.00;;;6.00;99.90;;;;;;5089098;28;20024;-45
2022/01/21 13:05:50;;;;;;;9.05;2.47;;;6.00;99.90;;;;;;5087640;28;20028;-46
2022/01/21 13:08:38;;;;;;;7.35;1.98;;;6.00;99.90;;;;;;5088497;28;20093;-45
2022/01/21 13:11:21;;;;;;;10.30;2.53;;;5.80;99.90;;;;;;5089470;28;20427;-46
2022/01/21 13:13:49;;;;;;;9.90;2.22;;;5.80;99.90;;;;;;5089160;28;20020;-46
2022/01/21 13:16:29;;;;;;;8.23;2.22;;;5.70;99.90;;;;;;5087687;28;20047;-46
2022/01/21 13:19:05;;;;;;;8.25;2.63;;;5.50;99.90;;;;;;5087271;28;20107;-45
2022/01/21 13:21:33;;;;;;;9.73;1.80;;;5.40;99.90;;;;;;5069646;28;20032;-48
2022/01/21 13:24:01;;;;;;;11.10;2.97;;;5.30;99.90;;;;;;5086315;28;20059;-46
2022/01/21 13:26:36;;;;;;;9.18;2.35;;;5.30;99.90;;;;;;5088913;28;20504;-48
2022/01/21 13:29:11;;;;;;;22.35;5.28;;;5.20;99.90;;;;;;5088240;28;20128;-47
2022/01/21 13:31:55;;;;;;;12.70;2.55;;;5.10;99.90;;;;;;5088731;28;20281;-46
2022/01/21 13:34:25;;;;;;;13.13;2.42;;;5.10;99.90;;;;;;5088484;28;20286;-47
2022/01/21 13:36:54;;;;;;;11.98;2.72;;;5.10;99.90;;;;;;5088647;28;20036;-48
2022/01/21 13:39:29;;;;;;;13.32;3.17;;;5.00;99.90;;;;;;5087984;28;20080;-47
2022/01/21 13:42:03;;;;;;;6.80;2.25;;;5.00;99.90;;;;;;5088987;28;20058;-48
2022/01/21 13:44:50;;;;;;;17.00;2.33;;;4.90;99.90;;;;;;5088767;28;20377;-47
2022/01/21 13:47:29;;;;;;;14.35;2.53;;;4.80;99.90;;;;;;5087864;28;20088;-46
2022/01/21 13:50:01;;;;;;;15.43;2.90;;;4.80;99.90;;;;;;5080137;28;20033;-46
2022/01/21 13:52:36;;;;;;;11.15;2.42;;;4.80;99.90;;;;;;5079896;28;20480;-48